Home > Products > Valid Products > TAF

000
FTUS41 KALY 021131
TAFGFL
TAF
KGFL 021131Z 0212/0312 00000KT P6SM FEW002 BKN250
     FM021400 21007KT P6SM SCT050
     FM022200 25007KT P6SM SCT050
     FM030100 00000KT P6SM SKC
     FM030800 00000KT 2SM BR SKC=



000
FTUS41 KALY 021131
TAFALB
TAF
KALB 021131Z 0212/0312 29005KT P6SM FEW025 BKN250
     FM021400 29007KT P6SM SCT040
     FM021800 28010KT P6SM SCT050
     FM030100 32005KT P6SM SKC
     FM030800 00000KT 4SM BR SKC=



000
FTUS41 KALY 021131
TAFPOU
TAF
KPOU 021131Z 0212/0312 00000KT P6SM BKN250
     FM021400 29004KT P6SM SCT040
     FM021900 28007KT P6SM BKN050
     FM030100 VRB03KT P6SM SKC
     FM030800 00000KT 4SM BR SKC=



000
FTUS41 KALY 020520
TAFALB
TAF
KALB 020520Z 0206/0306 26007KT P6SM FEW100 SCT260
      TEMPO 0208/0211 5SM BR
     FM021400 29007KT P6SM SCT040
     FM021800 28009KT P6SM SCT050
     FM030100 32005KT P6SM SKC=



000
FTUS41 KALY 020520
TAFPOU
TAF
KPOU 020520Z 0206/0306 00000KT P6SM SKC
      TEMPO 0208/0211 5SM BR
     FM021400 29004KT P6SM SCT040
     FM021900 28007KT P6SM BKN050
     FM030100 VRB03KT P6SM SKC=



000
FTUS41 KALY 020520
TAFGFL
TAF
KGFL 020520Z 0206/0306 20003KT P6SM FEW090
      TEMPO 0208/0211 4SM BR
     FM021200 21005KT P6SM SCT040
     FM021800 21007KT P6SM SCT050
     FM022200 25007KT P6SM SCT050
     FM030100 00000KT P6SM SKC=



000
FTUS41 KALY 012349
TAFALB
TAF
KALB 012349Z 0200/0224 28008KT P6SM SCT040 SCT100
     FM020500 29005KT P6SM SKC
      TEMPO 0208/0211 5SM BR
     FM021400 29007KT P6SM SCT040
     FM021800 28009KT P6SM SCT050=



000
FTUS41 KALY 012349
TAFGFL
TAF
KGFL 012349Z 0200/0224 28008KT P6SM SCT040 SCT100
     FM020400 29005KT P6SM SKC
     FM020700 23003KT 4SM BR SKC
      TEMPO 0208/0211 2SM BR
     FM021200 21005KT P6SM SCT040
     FM021800 21007KT P6SM SCT050
     FM022200 25007KT P6SM SCT050=



000
FTUS41 KALY 012349
TAFPOU
TAF
KPOU 012349Z 0200/0224 27005KT P6SM SCT040 SCT100
     FM020500 VRB03KT P6SM SKC
      TEMPO 0208/0211 5SM BR
     FM021400 29004KT P6SM SCT040
     FM021900 28007KT P6SM BKN050=



000
FTUS41 KALY 012349
TAFGFL
TAF
KGFL 012349Z 0200/0224 28008KT P6SM SCT040 SCT100
     FM020400 29005KT P6SM SKC
     FM020700 23003KT 4SM BR SKC
      TEMPO 0208/0211 2SM BR
     FM021200 21005KT P6SM SCT040
     FM021800 21007KT P6SM SCT050
     FM022200 25007KT P6SM SCT050=



000
FTUS41 KALY 012349
TAFPOU
TAF
KPOU 012349Z 0200/0224 27005KT P6SM SCT040 SCT100
     FM020500 VRB03KT P6SM SKC
      TEMPO 0208/0211 5SM BR
     FM021400 29004KT P6SM SCT040
     FM021900 28007KT P6SM BKN050=



000
FTUS41 KALY 012349
TAFALB
TAF
KALB 012349Z 0200/0224 28008KT P6SM SCT040 SCT100
     FM020500 29005KT P6SM SKC
      TEMPO 0208/0211 5SM BR
     FM021400 29007KT P6SM SCT040
     FM021800 28009KT P6SM SCT050=



000
FTUS41 KALY 012204 AAC
TAFALB
TAF AMD
KALB 012204Z 0122/0218 28012G23KT P6SM SCT035 BKN100
     FM012330 28010KT P6SM SCT040 SCT100
     FM020100 29005KT P6SM SCT040
     FM020500 29004KT P6SM SKC
     FM021400 29008KT P6SM SCT040=



000
FTUS41 KALY 012006 AAB
TAFALB
TAF AMD
KALB 012006Z 0120/0218 27010KT P6SM VCSH SCT045 BKN100 BKN250
      TEMPO 0120/0122 27015G25KT 5SM -SHRA BKN045
     FM012200 29010KT P6SM BKN040
     FM020100 29005KT P6SM SCT040
     FM020500 29004KT P6SM SKC
     FM021400 29008KT P6SM SCT040=



000
FTUS41 KALY 012006 AAB
TAFALB
TAF AMD
KALB 012006Z 0120/0218 27010KT P6SM VCSH SCT045 BKN100 BKN250
      TEMPO 0120/0122 27015G25KT 5SM -SHRA BKN045
     FM012200 29010KT P6SM BKN040
     FM020100 29005KT P6SM SCT040
     FM020500 29004KT P6SM SKC
     FM021400 29008KT P6SM SCT040=



000
FTUS41 KALY 011902 AAA
TAFGFL
TAF AMD
KGFL 011902Z 0119/0218 21008KT P6SM VCSH SCT035 SCT045 BKN060
      TEMPO 0119/0121 5SM -TSRA BR BKN030CB OVC040
     FM012100 24008KT P6SM BKN050
     FM020200 23004KT P6SM SCT040
     FM020700 23003KT 4SM BR SKC
     FM021200 21005KT P6SM SCT050=



000
FTUS41 KALY 011901 AAA
TAFALB
TAF AMD
KALB 011901Z 0119/0218 19010KT P6SM VCSH BKN035 BKN100 BKN250
      TEMPO 0119/0121 5SM -TSRA BR BKN030CB OVC040
     FM012100 26010KT P6SM BKN040
     FM020100 26005KT P6SM SCT040
     FM020500 26004KT P6SM SKC
     FM021400 29008KT P6SM SCT040=



000
FTUS41 KALY 011901 AAA
TAFALB
TAF AMD
KALB 011901Z 0119/0218 19010KT P6SM VCSH BKN035 BKN100 BKN250
      TEMPO 0119/0121 5SM -TSRA BR BKN030CB OVC040
     FM012100 26010KT P6SM BKN040
     FM020100 26005KT P6SM SCT040
     FM020500 26004KT P6SM SKC
     FM021400 29008KT P6SM SCT040=



000
FTUS41 KALY 011900 AAA
TAFPOU
TAF AMD
KPOU 011900Z 0119/0218 24012G20KT P6SM VCSH SCT030 SCT060 BKN070
      TEMPO 0120/0123 5SM -SHRA BR BKN025 OVC040
     FM012300 25008KT P6SM SCT040
     FM020400 00000KT P6SM SKC
     FM021400 29004KT P6SM SCT040=



000
FTUS41 KALY 011900 AAA
TAFPOU
TAF AMD
KPOU 011900Z 0119/0218 24012G20KT P6SM VCSH SCT030 SCT060 BKN070
      TEMPO 0120/0123 5SM -SHRA BR BKN025 OVC040
     FM012300 25008KT P6SM SCT040
     FM020400 00000KT P6SM SKC
     FM021400 29004KT P6SM SCT040=



000
FTUS41 KALY 011757 CCA
TAFPOU
TAF COR
KPOU 011757Z 0118/0218 22012KT P6SM VCSH SCT030 BKN040
      TEMPO 0120/0123 5SM -SHRA BR BKN030 OVC040
     FM012300 25008KT P6SM SCT040
     FM020400 00000KT P6SM SKC
     FM021400 29004KT P6SM SCT040=



000
FTUS41 KALY 011757 CCA
TAFGFL
TAF COR
KGFL 011757Z 0118/0218 20008KT P6SM VCSH SCT030 BKN040
      TEMPO 0118/0121 5SM -SHRA BR BKN030 OVC040
     FM012100 24008KT P6SM BKN050
     FM020200 23004KT P6SM SCT040
     FM020700 23003KT 4SM BR SKC
     FM021200 21005KT P6SM SCT050=



000
FTUS41 KALY 011757 CCA
TAFGFL
TAF COR
KGFL 011757Z 0118/0218 20008KT P6SM VCSH SCT030 BKN040
      TEMPO 0118/0121 5SM -SHRA BR BKN030 OVC040
     FM012100 24008KT P6SM BKN050
     FM020200 23004KT P6SM SCT040
     FM020700 23003KT 4SM BR SKC
     FM021200 21005KT P6SM SCT050=



000
FTUS41 KALY 011723
TAFPOU
TAF
KPOU 011723Z 0118/0218 20006KT P6SM VCSH SCT030 BKN040
      TEMPO 0120/0123 5SM -SHRA BR BKN030 OVC040
     FM012300 25008KT P6SM SCT040
     FM020400 00000KT P6SM SKC
     FM021400 29004KT P6SM SCT040=



000
FTUS41 KALY 011723
TAFALB
TAF
KALB 011723Z 0118/0218 19010KT P6SM VCSH BKN035 BKN060
      TEMPO 0119/0121 5SM -SHRA BR BKN030 OVC040
     FM012100 26010KT P6SM BKN040
     FM020100 26005KT P6SM SCT040
     FM020500 26004KT P6SM SKC
     FM021400 29008KT P6SM SCT040=



000
FTUS41 KALY 011723
TAFGFL
TAF
KGFL 011723Z 0118/0218 20008KT P6SM VCSH SCT030 BKN040
      TEMPO 0119/0121 5SM -SHRA BR BKN030 OVC040
     FM012100 24008KT P6SM BKN050
     FM020200 23004KT P6SM SCT040
     FM020700 23003KT 4SM BR SKC
     FM021200 21005KT P6SM SCT050=



000
FTUS41 KALY 011642 AAC
TAFPOU
TAF AMD
KPOU 011642Z 0117/0212 VRB03KT P6SM VCSH BKN035 BKN050
      TEMPO 0120/0123 5SM -SHRA BR BKN030 OVC040
     FM012300 25010KT P6SM SCT060
     FM020200 25005KT P6SM BKN050=



000
FTUS41 KALY 011639 AAC
TAFGFL
TAF AMD
KGFL 011639Z 0117/0212 20008KT P6SM VCTS BKN070CB OVC090
     FM011800 22008KT P6SM VCSH BKN050 BKN090
     FM012200 24008KT P6SM BKN050
     FM020400 21004KT P6SM SCT025 BKN035=



000
FTUS41 KALY 011639 AAC
TAFGFL
TAF AMD
KGFL 011639Z 0117/0212 20008KT P6SM VCTS BKN070CB OVC090
     FM011800 22008KT P6SM VCSH BKN050 BKN090
     FM012200 24008KT P6SM BKN050
     FM020400 21004KT P6SM SCT025 BKN035=



000
FTUS41 KALY 011602 AAB
TAFGFL
TAF AMD
KGFL 011602Z 0116/0212 20008KT P6SM VCSH BKN015 BKN040
     FM012200 24008KT P6SM BKN050
     FM020400 21004KT P6SM SCT025 BKN035=



000
FTUS41 KALY 011507 AAB
TAFPOU
TAF AMD
KPOU 011507Z 0115/0212 VRB03KT P6SM SCT015 BKN030
      TEMPO 0115/0116 BKN015
     FM011800 23008KT P6SM VCSH SCT030 BKN050
     FM012200 25010KT P6SM SCT060
     FM020200 25005KT P6SM BKN050=



000
FTUS41 KALY 011451 AAA
TAFALB
TAF AMD
KALB 011451Z 0115/0212 18010KT P6SM VCSH BKN035 BKN060 OVC130
      TEMPO 0115/0117 BKN008 BKN035 BKN060
     FM011700 19010G15KT P6SM VCSH BKN050
     FM012200 26012G17KT P6SM BKN060
     FM020100 25007KT P6SM SCT025 BKN035=



000
FTUS41 KALY 011451 AAA
TAFGFL
TAF AMD
KGFL 011451Z 0115/0212 VRB03KT P6SM VCSH BKN007 OVC015
     FM011600 20008KT P6SM VCSH SCT025 BKN040
     FM012200 24008KT P6SM BKN050
     FM020400 21004KT P6SM SCT025 BKN035=



000
FTUS41 KALY 011300 AAA
TAFPOU
TAF AMD
KPOU 011300Z 0113/0212 VRB03KT P6SM FEW002 BKN025 OVC100
      TEMPO 0113/0115 SCT025 BKN100
     FM011800 23008KT P6SM VCSH SCT030 BKN050
     FM012200 25010KT P6SM SCT060
     FM020200 25005KT P6SM BKN050=



000
FTUS41 KALY 011300 AAA
TAFPOU
TAF AMD
KPOU 011300Z 0113/0212 VRB03KT P6SM FEW002 BKN025 OVC100
      TEMPO 0113/0115 SCT025 BKN100
     FM011800 23008KT P6SM VCSH SCT030 BKN050
     FM012200 25010KT P6SM SCT060
     FM020200 25005KT P6SM BKN050=



000
FTUS41 KALY 011159 CCA
TAFGFL
TAF COR
KGFL 011159Z 0112/0212 VRB03KT 6SM BR VCSH FEW005 BKN025 OVC060
      TEMPO 0112/0114 3SM -SHRA BR SCT005 BKN015 OVC030
     FM011600 20008KT P6SM VCSH SCT025 BKN040
     FM012200 24008KT P6SM BKN050
     FM020400 21004KT P6SM SCT025 BKN035=



000
FTUS41 KALY 011159 CCA
TAFALB
TAF COR
KALB 011159Z 0112/0212 VRB03KT 6SM BR VCSH FEW005 SCT015 OVC040
      TEMPO 0112/0114 3SM -SHRA BR SCT005 OVC012
     FM011500 18008KT P6SM VCSH SCT025 BKN040
     FM011700 19010G15KT P6SM VCSH BKN050
     FM012200 26012G17KT P6SM BKN060
     FM020100 25007KT P6SM SCT025 BKN035=



000
FTUS41 KALY 011142
TAFGFL
TAF
KGFL 011142Z 0112/0212 VRB03KT 6SM -SHRA BR FEW005 BKN025 OVC060
      TEMPO 0112/0114 3SM -SHRA BR SCT005 BKN015 OVC030
     FM011600 20008KT P6SM VCSH SCT025 BKN040
     FM012200 24008KT P6SM BKN050
     FM020400 21004KT P6SM SCT025 BKN035=



000
FTUS41 KALY 011142
TAFPOU
TAF
KPOU 011142Z 0112/0212 VRB03KT 6SM -SHRA BR SCT015 BKN120
     FM011300 23008KT P6SM VCSH SCT030 BKN050
     FM012200 25010KT P6SM SCT060
     FM020200 25005KT P6SM BKN050=



000
FTUS41 KALY 011142
TAFALB
TAF
KALB 011142Z 0112/0212 VRB03KT 6SM -SHRA BR FEW005 SCT015 OVC040
      TEMPO 0112/0114 3SM -SHRA BR SCT005 OVC012
     FM011500 18008KT P6SM VCSH SCT025 BKN040
     FM011700 19010G15KT P6SM VCSH BKN050
     FM012200 26012G17KT P6SM BKN060
     FM020100 25007KT P6SM SCT025 BKN035=



000
FTUS41 KALY 011142
TAFGFL
TAF
KGFL 011142Z 0112/0212 VRB03KT 6SM -SHRA BR FEW005 BKN025 OVC060
      TEMPO 0112/0114 3SM -SHRA BR SCT005 BKN015 OVC030
     FM011600 20008KT P6SM VCSH SCT025 BKN040
     FM012200 24008KT P6SM BKN050
     FM020400 21004KT P6SM SCT025 BKN035=



000
FTUS41 KALY 011142
TAFPOU
TAF
KPOU 011142Z 0112/0212 VRB03KT 6SM -SHRA BR SCT015 BKN120
     FM011300 23008KT P6SM VCSH SCT030 BKN050
     FM012200 25010KT P6SM SCT060
     FM020200 25005KT P6SM BKN050=



000
FTUS41 KALY 011142
TAFALB
TAF
KALB 011142Z 0112/0212 VRB03KT 6SM -SHRA BR FEW005 SCT015 OVC040
      TEMPO 0112/0114 3SM -SHRA BR SCT005 OVC012
     FM011500 18008KT P6SM VCSH SCT025 BKN040
     FM011700 19010G15KT P6SM VCSH BKN050
     FM012200 26012G17KT P6SM BKN060
     FM020100 25007KT P6SM SCT025 BKN035=



000
FTUS41 KALY 011118 AAC
TAFPOU
TAF AMD
KPOU 011118Z 0111/0206 VRB03KT 6SM BR VCSH SCT015 OVC100
      TEMPO 0111/0112 3SM SHRA BR OVC015
     FM011300 21007KT P6SM VCSH BKN050
     FM012200 24008KT P6SM SCT060=



000
FTUS41 KALY 011118 AAC
TAFPOU
TAF AMD
KPOU 011118Z 0111/0206 VRB03KT 6SM BR VCSH SCT015 OVC100
      TEMPO 0111/0112 3SM SHRA BR OVC015
     FM011300 21007KT P6SM VCSH BKN050
     FM012200 24008KT P6SM SCT060=



000
FTUS41 KALY 011116 AAB
TAFALB
TAF AMD
KALB 011116Z 0111/0206 19005KT 6SM BR VCSH FEW005 SCT015 OVC035
      TEMPO 0111/0112 3SM SHRA BR SCT008 OVC015
     FM011400 18010G15KT P6SM VCSH SCT025 BKN040
     FM012100 26008KT P6SM BKN060=



000
FTUS41 KALY 011116 AAB
TAFALB
TAF AMD
KALB 011116Z 0111/0206 19005KT 6SM BR VCSH FEW005 SCT015 OVC035
      TEMPO 0111/0112 3SM SHRA BR SCT008 OVC015
     FM011400 18010G15KT P6SM VCSH SCT025 BKN040
     FM012100 26008KT P6SM BKN060=



000
FTUS41 KALY 011114 AAB
TAFGFL
TAF AMD
KGFL 011114Z 0111/0206 VRB03KT 6SM BR VCSH SCT008 OVC020
      TEMPO 0111/0112 3SM SHRA BR BKN008 OVC020
     FM011400 19008KT P6SM VCSH SCT025 BKN040
     FM012100 23008KT P6SM BKN060=



000
FTUS41 KALY 011114 AAB
TAFGFL
TAF AMD
KGFL 011114Z 0111/0206 VRB03KT 6SM BR VCSH SCT008 OVC020
      TEMPO 0111/0112 3SM SHRA BR BKN008 OVC020
     FM011400 19008KT P6SM VCSH SCT025 BKN040
     FM012100 23008KT P6SM BKN060=



000
FTUS41 KALY 010851 AAB
TAFPOU
TAF AMD
KPOU 010851Z 0109/0206 VRB03KT 6SM BR VCTS SCT015 OVC025CB
      TEMPO 0109/0111 VRB15G25KT 2SM +TSRA BR BKN008 OVC015CB
     FM011300 21007KT P6SM VCSH BKN050
     FM012200 24008KT P6SM SCT060=



000
FTUS41 KALY 010812 AAA
TAFPOU
TAF AMD
KPOU 010812Z 0108/0206 VRB03KT 6SM BR VCSH SCT015 OVC025
      TEMPO 0108/0111 2SM BR BKN008 OVC015
     FM011300 21007KT P6SM VCSH BKN050
     FM012200 24008KT P6SM SCT060=



000
FTUS41 KALY 010811 AAA
TAFALB
TAF AMD
KALB 010811Z 0108/0206 19005KT 6SM BR VCSH SCT008 OVC015
      TEMPO 0108/0111 2SM BR BKN008 OVC015
     FM011400 18010G15KT P6SM VCSH SCT025 BKN040
     FM012100 26008KT P6SM BKN060=



000
FTUS41 KALY 010811 AAA
TAFGFL
TAF AMD
KGFL 010811Z 0108/0206 VRB03KT 6SM BR VCSH SCT008 OVC015
      TEMPO 0108/0111 2SM BR BKN008 OVC015
     FM011400 19008KT P6SM VCSH SCT025 BKN040
     FM012100 23008KT P6SM BKN060=



000
FTUS41 KALY 010811 AAA
TAFALB
TAF AMD
KALB 010811Z 0108/0206 19005KT 6SM BR VCSH SCT008 OVC015
      TEMPO 0108/0111 2SM BR BKN008 OVC015
     FM011400 18010G15KT P6SM VCSH SCT025 BKN040
     FM012100 26008KT P6SM BKN060=



000
FTUS41 KALY 010520
TAFPOU
TAF
KPOU 010520Z 0106/0206 14005KT 6SM -SHRA BR VCTS BKN025 BKN050CB
      TEMPO 0106/0108 VRB10G20KT 3SM -SHRA BR SCT008 OVC015
     FM010800 VRB03KT 4SM BR VCSH SCT008 OVC015
      TEMPO 0108/0111 2SM BR BKN008 OVC015
     FM011300 21007KT P6SM VCSH BKN050
     FM012200 24008KT P6SM SCT060=



000
FTUS41 KALY 010520
TAFALB
TAF
KALB 010520Z 0106/0206 16005KT 6SM -SHRA BR VCTS BKN030 OVC070CB
      TEMPO 0106/0108 VRB10G20KT 3SM -SHRA BR SCT008 OVC015
     FM010800 VRB03KT 4SM BR VCSH SCT008 OVC015
      TEMPO 0108/0111 2SM BR BKN008 OVC015
     FM011400 18010G15KT P6SM VCSH SCT025 BKN040
     FM012100 26008KT P6SM BKN060=



000
FTUS41 KALY 010520
TAFPOU
TAF
KPOU 010520Z 0106/0206 14005KT 6SM -SHRA BR VCTS BKN025 BKN050CB
      TEMPO 0106/0108 VRB10G20KT 3SM -SHRA BR SCT008 OVC015
     FM010800 VRB03KT 4SM BR VCSH SCT008 OVC015
      TEMPO 0108/0111 2SM BR BKN008 OVC015
     FM011300 21007KT P6SM VCSH BKN050
     FM012200 24008KT P6SM SCT060=



000
FTUS41 KALY 010520
TAFALB
TAF
KALB 010520Z 0106/0206 16005KT 6SM -SHRA BR VCTS BKN030 OVC070CB
      TEMPO 0106/0108 VRB10G20KT 3SM -SHRA BR SCT008 OVC015
     FM010800 VRB03KT 4SM BR VCSH SCT008 OVC015
      TEMPO 0108/0111 2SM BR BKN008 OVC015
     FM011400 18010G15KT P6SM VCSH SCT025 BKN040
     FM012100 26008KT P6SM BKN060=



000
FTUS41 KALY 010520
TAFGFL
TAF
KGFL 010520Z 0106/0206 VRB03KT 6SM -SHRA BR VCTS BKN030 OVC070CB
      TEMPO 0106/0108 VRB10G20KT 3SM -SHRA BR SCT008 OVC015
     FM010800 VRB03KT 4SM BR VCSH SCT008 OVC015
      TEMPO 0108/0111 2SM BR BKN008 OVC015
     FM011400 19008KT P6SM VCSH SCT025 BKN040
     FM012100 23008KT P6SM BKN060=



000
FTUS41 KALY 010520
TAFGFL
TAF
KGFL 010520Z 0106/0206 VRB03KT 6SM -SHRA BR VCTS BKN030 OVC070CB
      TEMPO 0106/0108 VRB10G20KT 3SM -SHRA BR SCT008 OVC015
     FM010800 VRB03KT 4SM BR VCSH SCT008 OVC015
      TEMPO 0108/0111 2SM BR BKN008 OVC015
     FM011400 19008KT P6SM VCSH SCT025 BKN040
     FM012100 23008KT P6SM BKN060=



000
FTUS41 KALY 010353 AAB
TAFPOU
TAF AMD
KPOU 010353Z 0104/0124 14005KT P6SM VCTS SCT025 OVC080CB
      TEMPO 0104/0106 2SM SHRA BR BKN025 BKN050
     FM010600 00000KT 6SM BR BKN025 BKN050
     FM010900 VRB03KT 4SM BR VCSH BKN015 OVC040
      TEMPO 0109/0112 2SM BR BKN008 OVC015
     FM011300 21006KT P6SM VCSH SCT025 BKN040
     FM011800 22008KT P6SM VCSH BKN040 BKN100
     FM012200 24008KT P6SM BKN040=



000
FTUS41 KALY 010223 AAA
TAFPOU
TAF AMD
KPOU 010223Z 0102/0124 VRB03KT P6SM SCT050 BKN100
      TEMPO 0102/0106 4SM -SHRA BR BKN025 BKN050
     FM010600 00000KT 6SM BR BKN025 BKN050
     FM010900 VRB03KT 4SM BR VCSH BKN015 OVC040
      TEMPO 0109/0112 2SM BR BKN008 OVC015
     FM011300 21006KT P6SM VCSH SCT025 BKN040
     FM011800 22008KT P6SM VCSH BKN040 BKN100
     FM012200 24008KT P6SM BKN040=



000
FTUS41 KALY 010010 AAA
TAFALB
TAF AMD
KALB 010010Z 0100/0124 VRB03KT P6SM SCT015 BKN100
      TEMPO 0101/0104 4SM -SHRA BR SCT007 BKN015 BKN050
     FM010400 16004KT 6SM BR SCT025 BKN050
     FM010900 16004KT 4SM BR BKN025 OVC040
      TEMPO 0109/0112 2SM BR BKN008 OVC015
     FM011500 18007KT P6SM VCSH SCT025 BKN040
     FM011800 20010G20KT P6SM VCSH BKN040 BKN100
     FM012200 25008KT P6SM BKN040=



000
FTUS41 KALY 302349
TAFPOU
TAF
KPOU 302349Z 0100/0124 VRB03KT P6SM SCT050 BKN100
      TEMPO 0100/0104 4SM -SHRA BR SCT025 BKN050
     FM010400 00000KT 6SM BR SCT025 BKN050
     FM010900 VRB03KT 4SM BR VCSH BKN025 OVC040
      TEMPO 0109/0112 2SM BR BKN008 OVC015
     FM011300 21006KT P6SM VCSH SCT025 BKN040
     FM011800 22008KT P6SM VCSH BKN040 BKN100
     FM012200 24008KT P6SM BKN040=



000
FTUS41 KALY 302349
TAFALB
TAF
KALB 302349Z 0100/0124 VRB03KT P6SM SCT050 BKN100
      TEMPO 0101/0104 4SM -SHRA BR SCT025 BKN050
     FM010400 16004KT 6SM BR SCT025 BKN050
     FM010900 16004KT 4SM BR BKN025 OVC040
      TEMPO 0109/0112 2SM BR BKN008 OVC015
     FM011500 18007KT P6SM VCSH SCT025 BKN040
     FM011800 20010G20KT P6SM VCSH BKN040 BKN100
     FM012200 25008KT P6SM BKN040=



000
FTUS41 KALY 302349
TAFGFL
TAF
KGFL 302349Z 0100/0124 VRB03KT P6SM SCT050 BKN100
      TEMPO 0101/0104 4SM -SHRA BR SCT025 BKN050
     FM010400 VRB03KT 6SM BR SCT025 BKN050
     FM010900 15003KT 4SM BR BKN025 OVC040
      TEMPO 0109/0112 2SM BR BKN008 OVC015
     FM011500 18007KT P6SM VCSH SCT025 BKN040
     FM011800 19009KT P6SM VCSH BKN040 BKN100
     FM012100 23008KT P6SM BKN040=



000
FTUS41 KALY 302247 AAB
TAFALB
TAF AMD
KALB 302247Z 3023/0118 36004KT 6SM -RA BKN015 OVC050
      TEMPO 3023/0101 3SM -RA BR BKN007 OVC015
     FM010300 16007KT 6SM -SHRA BR BKN045 OVC070
     FM010900 16005KT 4SM BR VCSH SCT008 OVC015
     FM011300 17006KT P6SM VCSH SCT015 OVC040=



000
FTUS41 KALY 302149 AAA
TAFGFL
TAF AMD
KGFL 302149Z 3022/0118 03004KT 6SM -RA BKN035 OVC050
      TEMPO 3022/0101 3SM RA BR SCT025 OVC035
     FM010200 17003KT 6SM -SHRA BR BKN040 OVC070
     FM010800 17005KT 3SM BR VCSH SCT008 OVC015
     FM011300 17005KT P6SM VCSH SCT015 OVC040=



000
FTUS41 KALY 302149 AAA
TAFALB
TAF AMD
KALB 302149Z 3022/0118 36005KT 6SM -RA SCT035 OVC050
      TEMPO 3022/0101 3SM -RA BR BKN035 OVC050
     FM010300 16007KT 6SM -SHRA BR BKN045 OVC070
     FM010900 16005KT 4SM BR VCSH SCT008 OVC015
     FM011300 17006KT P6SM VCSH SCT015 OVC040=



000
FTUS41 KALY 302149 AAA
TAFPOU
TAF AMD
KPOU 302149Z 3022/0118 01004KT P6SM SCT035 BKN060
      TEMPO 3022/0102 3SM -RA BR BKN035 OVC050
     FM010400 14003KT 6SM -SHRA BR BKN050 OVC080
     FM010800 VRB03KT 3SM BR VCSH SCT008 OVC015
     FM011300 VRB06KT P6SM VCSH SCT015 OVC040=



000
FTUS41 KALY 301734
TAFGFL
TAF
KGFL 301734Z 3018/0118 VRB06KT 6SM -RA SCT040 OVC080
      TEMPO 3018/3021 3SM RA BR SCT025 OVC040
     FM010200 17003KT 6SM -SHRA BR BKN040 OVC070
     FM010800 17005KT 3SM BR VCSH SCT008 OVC015
     FM011300 17005KT P6SM VCSH SCT015 OVC040=



000
FTUS41 KALY 301734
TAFALB
TAF
KALB 301734Z 3018/0118 VRB06KT 6SM -RA SCT040 OVC080
      TEMPO 3018/3021 3SM -RA BR SCT025 OVC040
     FM010300 16007KT 6SM -SHRA BR BKN045 OVC070
     FM010900 16005KT 4SM BR VCSH SCT008 OVC015
     FM011300 17006KT P6SM VCSH SCT015 OVC040=



000
FTUS41 KALY 301734
TAFPOU
TAF
KPOU 301734Z 3018/0118 VRB06KT P6SM VCSH BKN080
     FM302100 16006KT P6SM VCSH SCT050 OVC080
     FM010400 14003KT 6SM -SHRA BR BKN050 OVC080
     FM010800 VRB03KT 3SM BR VCSH SCT008 OVC015
     FM011300 VRB06KT P6SM VCSH SCT015 OVC040=



000
FTUS41 KALY 301734
TAFPOU
TAF
KPOU 301734Z 3018/0118 VRB06KT P6SM VCSH BKN080
     FM302100 16006KT P6SM VCSH SCT050 OVC080
     FM010400 14003KT 6SM -SHRA BR BKN050 OVC080
     FM010800 VRB03KT 3SM BR VCSH SCT008 OVC015
     FM011300 VRB06KT P6SM VCSH SCT015 OVC040=



000
FTUS41 KALY 301734
TAFALB
TAF
KALB 301734Z 3018/0118 VRB06KT 6SM -RA SCT040 OVC080
      TEMPO 3018/3021 3SM -RA BR SCT025 OVC040
     FM010300 16007KT 6SM -SHRA BR BKN045 OVC070
     FM010900 16005KT 4SM BR VCSH SCT008 OVC015
     FM011300 17006KT P6SM VCSH SCT015 OVC040=



000
FTUS41 KALY 301734
TAFGFL
TAF
KGFL 301734Z 3018/0118 VRB06KT 6SM -RA SCT040 OVC080
      TEMPO 3018/3021 3SM RA BR SCT025 OVC040
     FM010200 17003KT 6SM -SHRA BR BKN040 OVC070
     FM010800 17005KT 3SM BR VCSH SCT008 OVC015
     FM011300 17005KT P6SM VCSH SCT015 OVC040=



000
FTUS41 KALY 301138
TAFALB
TAF
KALB 301138Z 3012/0112 VRB03KT P6SM FEW005 SCT080 BKN120
     FM301400 17007KT P6SM FEW050 BKN090
     FM301600 17010KT P6SM VCSH SCT050 OVC080
     FM010300 16007KT 6SM -SHRA BR BKN045 OVC070
     FM010900 16005KT 4SM BR VCSH SCT008 OVC015=



000
FTUS41 KALY 301138
TAFPOU
TAF
KPOU 301138Z 3012/0112 VRB03KT P6SM SCT080 BKN100
     FM301500 18007KT P6SM BKN080
     FM302100 16006KT P6SM VCSH SCT050 OVC080
     FM010400 14003KT 6SM -SHRA BR BKN050 OVC080
     FM010800 VRB03KT 3SM BR VCSH SCT008 OVC015=



000
FTUS41 KALY 301138
TAFGFL
TAF
KGFL 301138Z 3012/0112 VRB03KT P6SM BKN120
     FM301300 16007KT P6SM VCSH SCT050 OVC080
      TEMPO 3014/3017 3SM -SHRA BR BKN025 OVC040
     FM010200 17003KT 6SM -SHRA BR BKN040 OVC070
     FM010800 17005KT 3SM BR VCSH SCT008 OVC015=



000
FTUS41 KALY 300600 AAA
TAFPOU
TAF AMD
KPOU 300600Z 3006/0106 VRB03KT P6SM SCT060 BKN080
     FM301500 18007KT P6SM BKN080
     FM302100 16006KT P6SM VCSH SCT050 OVC080
     FM010300 14003KT 6SM BR VCSH BKN050 OVC080=



000
FTUS41 KALY 300520
TAFALB
TAF
KALB 300520Z 3006/0106 VRB03KT P6SM BKN050 BKN150
     FM301500 17007KT P6SM FEW050 BKN090
     FM301800 17010KT P6SM VCSH SCT050 OVC080
     FM010300 16007KT 6SM BR VCSH BKN050 OVC080=



000
FTUS41 KALY 300520
TAFPOU
TAF
KPOU 300520Z 3006/0106 VRB03KT P6SM SCT140
     FM300800 00000KT 6SM BR BKN120
     FM301500 18007KT P6SM BKN090
     FM302100 16006KT P6SM VCSH SCT050 OVC080
     FM010300 14003KT 6SM BR VCSH BKN050 OVC080=



000
FTUS41 KALY 300520
TAFGFL
TAF
KGFL 300520Z 3006/0106 VRB03KT P6SM SCT060 BKN180
     FM301700 16007KT P6SM VCSH SCT050 OVC080
     FM010200 VRB03KT 6SM BR VCSH BKN050 OVC080=



000
FTUS41 KALY 292341
TAFALB
TAF
KALB 292341Z 3000/3024 29005KT P6SM SCT050
     FM300300 VRB03KT P6SM SCT250
     FM300900 VRB03KT 6SM MIFG SCT100 BKN250
     FM301200 15003KT P6SM BKN100
     FM301500 16006KT P6SM SCT050 BKN080
     FM301900 17009KT P6SM VCSH BKN040 OVC080=



000
FTUS41 KALY 292341
TAFPOU
TAF
KPOU 292341Z 3000/3024 VRB03KT P6SM SCT050
     FM300300 VRB03KT P6SM SCT040 SCT250
     FM300600 00000KT 6SM BR SCT100 BKN250
     FM301100 VRB03KT P6SM BKN100
     FM301500 17005KT P6SM SCT050 BKN080
     FM302100 19008KT P6SM VCSH BKN040 OVC080=



000
FTUS41 KALY 292341
TAFGFL
TAF
KGFL 292341Z 3000/3024 23004KT P6SM BKN050
     FM300200 VRB03KT P6SM SCT050
     FM300600 00000KT 3SM BR SCT250
     FM301000 00000KT 6SM BR SCT100 BKN250
     FM301300 VRB03KT P6SM BKN100
     FM301600 16005KT P6SM SCT050 BKN080
     FM301900 17007KT P6SM VCSH BKN040 OVC080=



000
FTUS41 KALY 292341
TAFPOU
TAF
KPOU 292341Z 3000/3024 VRB03KT P6SM SCT050
     FM300300 VRB03KT P6SM SCT040 SCT250
     FM300600 00000KT 6SM BR SCT100 BKN250
     FM301100 VRB03KT P6SM BKN100
     FM301500 17005KT P6SM SCT050 BKN080
     FM302100 19008KT P6SM VCSH BKN040 OVC080=



000
FTUS41 KALY 292341
TAFGFL
TAF
KGFL 292341Z 3000/3024 23004KT P6SM BKN050
     FM300200 VRB03KT P6SM SCT050
     FM300600 00000KT 3SM BR SCT250
     FM301000 00000KT 6SM BR SCT100 BKN250
     FM301300 VRB03KT P6SM BKN100
     FM301600 16005KT P6SM SCT050 BKN080
     FM301900 17007KT P6SM VCSH BKN040 OVC080=



000
FTUS41 KALY 292341
TAFALB
TAF
KALB 292341Z 3000/3024 29005KT P6SM SCT050
     FM300300 VRB03KT P6SM SCT250
     FM300900 VRB03KT 6SM MIFG SCT100 BKN250
     FM301200 15003KT P6SM BKN100
     FM301500 16006KT P6SM SCT050 BKN080
     FM301900 17009KT P6SM VCSH BKN040 OVC080=



000
FTUS41 KALY 291728
TAFGFL
TAF
KGFL 291728Z 2918/3018 25006KT P6SM VCSH SCT035 BKN050
     FM300000 VRB03KT P6SM SCT050 SCT150
     FM300600 00000KT 3SM BR SCT008 SCT150
     FM301000 00000KT 6SM BR BKN120
     FM301300 VRB03KT P6SM VCSH BKN080=



000
FTUS41 KALY 291728
TAFALB
TAF
KALB 291728Z 2918/3018 28010G17KT P6SM VCSH SCT035 BKN050
     FM300000 27005KT P6SM SCT050 SCT150
     FM300300 VRB03KT P6SM SCT150
     FM300900 00000KT 6SM MIFG BKN120
     FM301200 VRB03KT P6SM BKN100
     FM301500 16005KT P6SM VCSH BKN080=



000
FTUS41 KALY 291728
TAFPOU
TAF
KPOU 291728Z 2918/3018 27010KT P6SM BKN050
     FM292300 VRB03KT P6SM FEW050 SCT150
     FM300600 00000KT 6SM BR FEW008 SCT150
     FM300900 00000KT 6SM BR FEW008 BKN120
     FM301200 VRB03KT P6SM BKN100
     FM301500 18005KT P6SM VCSH BKN080=



000
FTUS41 KALY 291550 AAB
TAFPOU
TAF AMD
KPOU 291550Z 2916/3012 25006KT P6SM BKN035 BKN060
     FM292300 VRB03KT P6SM FEW060 SCT150
     FM300600 00000KT 6SM BR BKN120=



000
FTUS41 KALY 291549 AAC
TAFALB
TAF AMD
KALB 291549Z 2916/3012 28010G17KT P6SM SCT025 BKN045
     FM291700 28010G18KT P6SM BKN045
     FM292200 25005KT P6SM FEW050 SCT150
     FM300700 VRB03KT P6SM BKN120=



000
FTUS41 KALY 291548 AAB
TAFGFL
TAF AMD
KGFL 291548Z 2916/3012 19005KT P6SM VCSH SCT015 BKN035 OVC060
      TEMPO 2916/2918 SCT015 BKN030 OVC050
     FM291800 24008KT P6SM BKN040
     FM300000 VRB03KT P6SM SCT150
     FM300700 00000KT 6SM BR BKN120=



000
FTUS41 KALY 291426 AAB
TAFALB
TAF AMD
KALB 291426Z 2914/3012 26006KT P6SM SCT025 BKN060
      TEMPO 2914/2916 BKN025 OVC040
     FM291700 27010G15KT P6SM BKN045
     FM292200 25005KT P6SM FEW050 SCT150
     FM300700 VRB03KT P6SM BKN120=



000
FTUS41 KALY 291423 AAA
TAFPOU
TAF AMD
KPOU 291423Z 2914/3012 25006KT P6SM FEW035 BKN060
      TEMPO 2914/2916 BKN030
     FM292300 VRB03KT P6SM FEW060 SCT150
     FM300600 00000KT 6SM BR BKN120=



000
FTUS41 KALY 291423 AAA
TAFPOU
TAF AMD
KPOU 291423Z 2914/3012 25006KT P6SM FEW035 BKN060
      TEMPO 2914/2916 BKN030
     FM292300 VRB03KT P6SM FEW060 SCT150
     FM300600 00000KT 6SM BR BKN120=



000
FTUS41 KALY 291422 AAA
TAFALB
TAF AMD
KALB 291422Z 2914/3012 26006KT P6SM SCT025 OVC060
      TEMPO 2914/2916 BKN025 OVC040
     FM291700 27010G15KT P6SM BKN045
     FM292200 25005KT P6SM FEW050 SCT150
     FM300700 VRB03KT P6SM BKN120=



000
FTUS41 KALY 291407 AAA
TAFGFL
TAF AMD
KGFL 291407Z 2914/3012 14008KT P6SM VCSH FEW015 BKN030 OVC060
     FM291600 22005KT P6SM SCT015 BKN035 OVC060
     FM291800 24008KT P6SM BKN040
     FM300000 VRB03KT P6SM SCT150
     FM300700 00000KT 6SM BR BKN120=



000
FTUS41 KALY 291407 AAA
TAFGFL
TAF AMD
KGFL 291407Z 2914/3012 14008KT P6SM VCSH FEW015 BKN030 OVC060
     FM291600 22005KT P6SM SCT015 BKN035 OVC060
     FM291800 24008KT P6SM BKN040
     FM300000 VRB03KT P6SM SCT150
     FM300700 00000KT 6SM BR BKN120=



    US Dept of Commerce
    National Oceanic and Atmospheric Administration
    National Weather Service
    1325 East West Highway
    Silver Spring, MD 20910
    Page Author: NWS Internet Services Team
Disclaimer
Information Quality
Credits
Glossary
Privacy Policy
Freedom of Information Act (FOIA)
About Us
Career Opportunities